Gunder, Iowa
Current Conditions -  °F | °C
As of 8:15 PM on Monday 22 Dec 2014 (Local Time) from KPDC Reporting Station
Haze Haze  
Wind Chill: 31°   Ceiling: 600
Heat Index: 37°   Visibility: 3mi
Dew Point: 34°   Wind: 7mph
Humidity: 92%   Direction: 80°E
Pressure: 29.57"   Gusts: NA
Location:  42.9942°N, 91.5477°W
Report Text: KPDC 230215Z AUTO 08006KT 3SM BR OVC006 03/01 A2957 RMK AO2 T00250013
Loading
Personal Weather Stations






























Interactive Weather Map New forecast layout! Learn more

10-Day Weather Forecast

Advertisements
Track Severe Weather on mobile